DMKKS EDDG-EDDG
Flight info
| Callsign | DMKKS |
|---|---|
| Flight time | 0h 2m |
| Altitude | |
| Route | |
| Aircraft | V3 |
Departure
| Time | 2026-05-08 18:25 |
|---|---|
| Airport | Münster Osnabrück Airport (EDDG) |
Arrival
| Time | 2026-05-08 18:27 |
|---|---|
| Airport | Münster Osnabrück Airport (EDDG) |
| Time | Latitude | Longitude | Altitude | Speed | Heading |
|---|---|---|---|---|---|
| 2026-05-08 18:17 | 52.13130 | 7.68319 | 164 ft | 0 kts | 271° |
| 2026-05-08 18:19 | 52.13175 | 7.68279 | 163 ft | 11 kts | 2° |
| 2026-05-08 18:20 | 52.13218 | 7.68343 | 164 ft | 9 kts | 341° |
| 2026-05-08 18:20 | 52.13221 | 7.68342 | 164 ft | 0 kts | 343° |
| 2026-05-08 18:20 | 52.13297 | 7.68300 | 164 ft | 12 kts | 340° |
| 2026-05-08 18:20 | 52.13334 | 7.68278 | 164 ft | 0 kts | 341° |
| 2026-05-08 18:22 | 52.13344 | 7.68273 | 164 ft | 12 kts | 343° |
| 2026-05-08 18:22 | 52.13424 | 7.68301 | 164 ft | 13 kts | 58° |
| 2026-05-08 18:23 | 52.13432 | 7.68328 | 164 ft | 0 kts | 69° |
| 2026-05-08 18:24 | 52.13432 | 7.68330 | 164 ft | 5 kts | 69° |
| 2026-05-08 18:24 | 52.13551 | 7.68878 | 172 ft | 85 kts | 72° |
| 2026-05-08 18:24 | 52.13742 | 7.69858 | 512 ft | 97 kts | 73° |
| 2026-05-08 18:24 | 52.13901 | 7.71053 | 743 ft | 127 kts | 82° |
| 2026-05-08 18:25 | 52.14612 | 7.71451 | 1019 ft | 156 kts | 319° |
| 2026-05-08 18:25 | 52.14775 | 7.69648 | 943 ft | 172 kts | 265° |
| 2026-05-08 18:25 | 52.14552 | 7.67807 | 936 ft | 160 kts | 252° |
| 2026-05-08 18:25 | 52.14195 | 7.66110 | 850 ft | 153 kts | 237° |
| 2026-05-08 18:26 | 52.13608 | 7.64739 | 729 ft | 145 kts | 204° |
| 2026-05-08 18:26 | 52.12899 | 7.65120 | 426 ft | 94 kts | 111° |
| 2026-05-08 18:26 | 52.12969 | 7.66086 | 294 ft | 87 kts | 74° |
| 2026-05-08 18:26 | 52.13147 | 7.66990 | 194 ft | 83 kts | 72° |
| 2026-05-08 18:27 | 52.13306 | 7.67730 | 164 ft | 55 kts | 67° |
| 2026-05-08 18:27 | 52.13373 | 7.68053 | 162 ft | 38 kts | 72° |
| 2026-05-08 18:27 | 52.13582 | 7.69086 | 369 ft | 107 kts | 67° |
| 2026-05-08 18:27 | 52.13925 | 7.70310 | 700 ft | 126 kts | 68° |
| 2026-05-08 18:28 | 52.14384 | 7.71514 | 1050 ft | 140 kts | 32° |
| 2026-05-08 18:28 | 52.14878 | 7.70585 | 971 ft | 171 kts | 249° |
| 2026-05-08 18:28 | 52.14449 | 7.68715 | 880 ft | 177 kts | 248° |
| 2026-05-08 18:28 | 52.13986 | 7.66856 | 794 ft | 179 kts | 245° |
| 2026-05-08 18:29 | 52.13461 | 7.65039 | 679 ft | 156 kts | 240° |
| 2026-05-08 18:29 | 52.12828 | 7.64794 | 580 ft | 106 kts | 119° |
| 2026-05-08 18:29 | 52.12915 | 7.65904 | 369 ft | 113 kts | 72° |
| 2026-05-08 18:29 | 52.13180 | 7.67239 | 313 ft | 130 kts | 70° |
| 2026-05-08 18:30 | 52.13496 | 7.68632 | 327 ft | 133 kts | 69° |
| 2026-05-08 18:30 | 52.13805 | 7.70147 | 449 ft | 144 kts | 73° |
| 2026-05-08 18:30 | 52.13995 | 7.71026 | 1068 ft | 89 kts | 44° |
| 2026-05-08 18:30 | 52.14595 | 7.70955 | 675 ft | 116 kts | 317° |
| 2026-05-08 18:31 | 52.14629 | 7.69648 | 613 ft | 122 kts | 248° |
| 2026-05-08 18:31 | 52.14308 | 7.68341 | 496 ft | 126 kts | 246° |
| 2026-05-08 18:31 | 52.13977 | 7.67037 | 496 ft | 113 kts | 249° |
| 2026-05-08 18:31 | 52.13711 | 7.65875 | 480 ft | 133 kts | 249° |
| 2026-05-08 18:32 | 52.13110 | 7.64945 | 414 ft | 122 kts | 155° |
| 2026-05-08 18:32 | 52.12928 | 7.65995 | 350 ft | 115 kts | 78° |
| 2026-05-08 18:32 | 52.13247 | 7.67402 | 163 ft | 133 kts | 72° |
| 2026-05-08 18:32 | 52.13498 | 7.68596 | 744 ft | 105 kts | 71° |
| 2026-05-08 18:33 | 52.13775 | 7.69690 | 1132 ft | 74 kts | 70° |
| 2026-05-08 18:33 | 52.13924 | 7.70227 | 1192 ft | 51 kts | 77° |
| 2026-05-08 18:33 | 52.14359 | 7.70299 | 1038 ft | 142 kts | 309° |
| 2026-05-08 18:33 | 52.14458 | 7.68496 | 711 ft | 152 kts | 259° |
| 2026-05-08 18:34 | 52.14249 | 7.67020 | 648 ft | 116 kts | 255° |
| 2026-05-08 18:34 | 52.14084 | 7.65850 | 566 ft | 97 kts | 258° |
| 2026-05-08 18:34 | 52.13956 | 7.64818 | 435 ft | 103 kts | 259° |
| 2026-05-08 18:34 | 52.13796 | 7.63493 | 529 ft | 117 kts | 256° |
| 2026-05-08 18:35 | 52.13587 | 7.62417 | 570 ft | 84 kts | 252° |
| 2026-05-08 18:35 | 52.13433 | 7.61563 | 516 ft | 89 kts | 257° |
| 2026-05-08 18:35 | 52.13236 | 7.60324 | 543 ft | 129 kts | 255° |
| 2026-05-08 18:35 | 52.12980 | 7.58866 | 620 ft | 137 kts | 255° |
| 2026-05-08 18:36 | 52.12705 | 7.57358 | 743 ft | 143 kts | 254° |
| 2026-05-08 18:36 | 52.12434 | 7.55797 | 844 ft | 143 kts | 255° |
| 2026-05-08 18:36 | 52.12194 | 7.54211 | 904 ft | 144 kts | 249° |
| 2026-05-08 18:36 | 52.11361 | 7.53644 | 747 ft | 147 kts | 155° |
| 2026-05-08 18:37 | 52.11144 | 7.55099 | 686 ft | 140 kts | 90° |
| 2026-05-08 18:37 | 52.11160 | 7.56662 | 674 ft | 138 kts | 86° |
| 2026-05-08 18:37 | 52.11279 | 7.58165 | 708 ft | 134 kts | 78° |
| 2026-05-08 18:37 | 52.11471 | 7.59674 | 702 ft | 136 kts | 77° |
| 2026-05-08 18:38 | 52.11838 | 7.61078 | 631 ft | 136 kts | 64° |
| 2026-05-08 18:38 | 52.12128 | 7.62158 | 589 ft | 83 kts | 68° |
| 2026-05-08 18:38 | 52.12310 | 7.63015 | 495 ft | 77 kts | 65° |
| 2026-05-08 18:38 | 52.12476 | 7.63830 | 481 ft | 73 kts | 73° |
| 2026-05-08 18:39 | 52.12639 | 7.64591 | 464 ft | 70 kts | 68° |
| 2026-05-08 18:39 | 52.12805 | 7.65368 | 399 ft | 74 kts | 73° |
| 2026-05-08 18:39 | 52.12976 | 7.66193 | 312 ft | 81 kts | 70° |
| 2026-05-08 18:39 | 52.13169 | 7.67097 | 177 ft | 85 kts | 69° |
| 2026-05-08 18:40 | 52.13343 | 7.67882 | 173 ft | 79 kts | 72° |
| 2026-05-08 18:40 | 52.13563 | 7.68988 | 393 ft | 118 kts | 68° |
| 2026-05-08 18:40 | 52.13833 | 7.70338 | 764 ft | 130 kts | 73° |
| 2026-05-08 18:40 | 52.14185 | 7.71732 | 1069 ft | 137 kts | 57° |
| 2026-05-08 18:41 | 52.15123 | 7.71750 | 1044 ft | 169 kts | 328° |
| 2026-05-08 18:41 | 52.15520 | 7.70074 | 1005 ft | 175 kts | 249° |
| 2026-05-08 18:41 | 52.14903 | 7.68468 | 1180 ft | 166 kts | 239° |
| 2026-05-08 18:41 | 52.14612 | 7.66629 | 1348 ft | 164 kts | 255° |
| 2026-05-08 18:42 | 52.14466 | 7.64825 | 1516 ft | 170 kts | 284° |
| 2026-05-08 18:42 | 52.15290 | 7.63470 | 1381 ft | 174 kts | 346° |
| 2026-05-08 18:42 | 52.16383 | 7.63759 | 1418 ft | 162 kts | 45° |
| 2026-05-08 18:42 | 52.16418 | 7.65427 | 1153 ft | 163 kts | 130° |
| 2026-05-08 18:43 | 52.15398 | 7.65103 | 836 ft | 178 kts | 238° |
| 2026-05-08 18:43 | 52.15409 | 7.63262 | 1220 ft | 162 kts | 296° |
| 2026-05-08 18:43 | 52.16139 | 7.61924 | 1468 ft | 161 kts | 319° |
| 2026-05-08 18:43 | 52.17217 | 7.61717 | 1243 ft | 162 kts | 44° |
| 2026-05-08 18:44 | 52.17034 | 7.63147 | 1319 ft | 151 kts | 140° |
| 2026-05-08 18:44 | 52.16307 | 7.63828 | 1430 ft | 146 kts | 44° |
| 2026-05-08 18:44 | 52.16818 | 7.63104 | 1486 ft | 91 kts | 69° |
| 2026-05-08 18:44 | 52.16671 | 7.64605 | 967 ft | 157 kts | 97° |
| 2026-05-08 18:45 | 52.16406 | 7.66369 | 797 ft | 162 kts | 119° |
| 2026-05-08 18:45 | 52.15569 | 7.67616 | 657 ft | 167 kts | 140° |
| 2026-05-08 18:45 | 52.14619 | 7.67863 | 741 ft | 167 kts | 240° |
| 2026-05-08 18:45 | 52.14141 | 7.66202 | 708 ft | 139 kts | 242° |
| 2026-05-08 18:46 | 52.13811 | 7.64877 | 445 ft | 115 kts | 253° |
| 2026-05-08 18:46 | 52.13637 | 7.63834 | 468 ft | 86 kts | 260° |
| 2026-05-08 18:46 | 52.13572 | 7.62908 | 350 ft | 78 kts | 267° |
| 2026-05-08 18:46 | 52.13366 | 7.62204 | 271 ft | 76 kts | 192° |
| 2026-05-08 18:47 | 52.13033 | 7.62751 | 241 ft | 81 kts | 82° |
| 2026-05-08 18:47 | 52.13215 | 7.63658 | 217 ft | 87 kts | 86° |
| 2026-05-08 18:47 | 52.13090 | 7.64519 | 258 ft | 76 kts | 107° |
| 2026-05-08 18:47 | 52.12839 | 7.65284 | 237 ft | 76 kts | 99° |
| 2026-05-08 18:48 | 52.12948 | 7.66035 | 287 ft | 68 kts | 68° |
| 2026-05-08 18:48 | 52.13127 | 7.66889 | 218 ft | 81 kts | 68° |
| 2026-05-08 18:48 | 52.13293 | 7.67672 | 158 ft | 61 kts | 64° |
| 2026-05-08 18:48 | 52.13394 | 7.68141 | 162 ft | 31 kts | 77° |
| 2026-05-08 18:49 | 52.13350 | 7.68271 | 164 ft | 15 kts | 171° |
| 2026-05-08 18:49 | 52.13281 | 7.68307 | 164 ft | 0 kts | 161° |
| 2026-05-08 18:50 | 52.13207 | 7.68346 | 164 ft | 13 kts | 186° |
| 2026-05-08 18:50 | 52.13158 | 7.68277 | 163 ft | 0 kts | 182° |